createdAt,value
2022-12-19T00:00:53.407Z,40.50
2022-12-19T00:06:19.146Z,42.10
2022-12-19T00:11:43.159Z,45.88
2022-12-19T00:17:06.083Z,45.63
2022-12-19T00:22:28.772Z,44.13
2022-12-19T00:27:52.662Z,38.23
2022-12-19T00:33:14.882Z,31.48
2022-12-19T00:38:37.107Z,36.42
2022-12-19T00:44:00.005Z,35.48
2022-12-19T00:49:23.118Z,33.85
2022-12-19T00:54:45.457Z,32.35
2022-12-19T01:00:07.893Z,31.20
2022-12-19T01:05:30.740Z,30.32
2022-12-19T01:10:55.758Z,29.85
2022-12-19T01:16:26.350Z,27.25
2022-12-19T01:21:48.802Z,29.87
2022-12-19T01:27:12.048Z,26.50
2022-12-19T01:32:35.970Z,25.90
2022-12-19T01:38:08.628Z,25.92
2022-12-19T01:43:24.132Z,25.15
2022-12-19T01:48:50.254Z,25.65
2022-12-19T01:54:20.377Z,23.07
2022-12-19T01:59:46.263Z,22.25
2022-12-19T02:05:08.527Z,26.20
2022-12-19T02:10:31.427Z,25.23
2022-12-19T02:16:25.175Z,25.48
2022-12-19T02:22:08.545Z,24.92
2022-12-19T02:28:12.074Z,25.12
2022-12-19T02:33:47.622Z,27.17
2022-12-19T02:39:17.412Z,26.90
2022-12-19T02:50:20.097Z,27.10
2022-12-19T02:55:46.853Z,28.37
2022-12-19T03:01:23.130Z,28.30
2022-12-19T03:07:02.529Z,27.37
2022-12-19T03:12:29.820Z,26.30
2022-12-19T03:17:58.998Z,28.23
2022-12-19T03:23:31.625Z,27.77
2022-12-19T03:29:01.977Z,27.90
2022-12-19T03:34:35.136Z,28.90
2022-12-19T03:40:01.913Z,24.77
2022-12-19T03:45:31.595Z,26.87
2022-12-19T03:50:59.712Z,25.87
2022-12-19T03:56:48.340Z,28.63
2022-12-19T04:02:14.553Z,27.73
2022-12-19T04:07:37.831Z,29.43
2022-12-19T04:13:19.417Z,27.50
2022-12-19T04:18:44.089Z,26.73
2022-12-19T04:24:17.211Z,24.67
2022-12-19T04:29:44.142Z,25.03
2022-12-19T04:35:06.344Z,26.57
2022-12-19T04:40:29.297Z,31.07
2022-12-19T04:45:57.266Z,31.87
2022-12-19T04:51:17.426Z,32.43
2022-12-19T04:56:40.308Z,31.12
2022-12-19T05:02:02.636Z,27.53
2022-12-19T05:07:26.706Z,26.83
2022-12-19T05:12:48.986Z,26.17
2022-12-19T05:18:11.362Z,26.53
2022-12-19T05:23:34.816Z,27.27
2022-12-19T05:28:57.152Z,24.50
2022-12-19T05:34:19.426Z,25.55
2022-12-19T05:39:41.939Z,25.88
2022-12-19T05:45:04.186Z,28.97
2022-12-19T05:50:27.551Z,30.07
2022-12-19T05:55:49.810Z,28.37
2022-12-19T06:01:20.835Z,36.33
2022-12-19T06:06:44.337Z,35.27
2022-12-19T06:12:06.682Z,27.30
2022-12-19T06:17:28.989Z,25.17
2022-12-19T06:22:51.364Z,25.00
2022-12-19T06:28:13.567Z,20.62
2022-12-19T06:33:37.178Z,22.20
2022-12-19T06:39:00.336Z,20.33
2022-12-19T06:44:24.734Z,21.25
2022-12-19T06:49:47.115Z,21.87
2022-12-19T06:55:09.314Z,21.77
2022-12-19T07:00:33.128Z,20.90
2022-12-19T07:05:56.685Z,21.30
2022-12-19T07:11:19.057Z,25.20
2022-12-19T07:16:43.052Z,27.55
2022-12-19T07:22:05.811Z,25.75
2022-12-19T07:27:35.249Z,23.47
2022-12-19T07:32:53.049Z,20.10
2022-12-19T07:38:18.207Z,21.23
2022-12-19T07:43:41.150Z,21.42
2022-12-19T07:49:03.366Z,21.03
2022-12-19T07:54:25.629Z,21.10
2022-12-19T07:59:48.035Z,20.43
2022-12-19T08:05:11.686Z,20.23
2022-12-19T08:10:34.562Z,21.55
2022-12-19T08:15:56.972Z,21.47
2022-12-19T08:21:20.609Z,22.10
2022-12-19T08:26:47.606Z,27.15
2022-12-19T08:32:08.295Z,23.77
2022-12-19T08:37:31.324Z,24.55
2022-12-19T08:42:54.473Z,22.80
2022-12-19T08:48:18.673Z,22.87
2022-12-19T08:53:44.095Z,22.55
2022-12-19T08:59:06.848Z,23.73
2022-12-19T09:05:57.906Z,22.25
2022-12-19T09:09:53.685Z,23.77
2022-12-19T09:15:16.555Z,23.65
2022-12-19T09:20:39.160Z,21.60
2022-12-19T09:26:02.140Z,23.83
2022-12-19T09:31:29.221Z,23.40
2022-12-19T09:36:51.557Z,24.30
2022-12-19T09:42:49.396Z,23.85
2022-12-19T09:48:23.645Z,23.00
2022-12-19T09:54:05.564Z,21.55
2022-12-19T10:00:05.321Z,23.10
2022-12-19T10:06:54.415Z,23.67
2022-12-19T10:12:42.885Z,24.95
2022-12-19T10:17:32.275Z,24.95
2022-12-19T10:23:17.836Z,24.37
2022-12-19T10:28:48.022Z,24.07
2022-12-19T10:34:33.670Z,24.23
2022-12-19T10:40:17.604Z,26.10
2022-12-19T10:45:46.880Z,27.15
2022-12-19T10:51:09.190Z,26.62
2022-12-19T10:56:38.356Z,24.80
2022-12-19T11:02:03.118Z,26.63
2022-12-19T11:07:33.717Z,26.90
2022-12-19T11:16:53.677Z,28.27
2022-12-19T11:26:42.560Z,28.75
2022-12-19T11:29:19.779Z,26.80
2022-12-19T11:35:36.789Z,27.93
2022-12-19T11:41:01.871Z,28.67
2022-12-19T11:46:38.092Z,28.95
2022-12-19T11:57:54.124Z,28.17
2022-12-19T12:03:39.804Z,27.47
2022-12-19T12:11:32.294Z,29.03
2022-12-19T12:31:01.480Z,28.57
2022-12-19T12:31:50.631Z,29.13
2022-12-19T12:31:55.328Z,29.73
2022-12-19T12:35:30.605Z,29.17
2022-12-19T12:38:27.808Z,29.03
2022-12-19T12:44:08.488Z,28.50
2022-12-19T12:49:54.914Z,31.63
2022-12-19T12:55:20.507Z,26.77
2022-12-19T13:00:48.375Z,29.63
2022-12-19T13:06:33.591Z,29.60
2022-12-19T13:12:26.735Z,28.57
2022-12-19T13:17:56.855Z,27.50
2022-12-19T13:23:45.325Z,29.17
2022-12-19T13:29:09.307Z,28.23
2022-12-19T13:34:42.374Z,28.75
2022-12-19T13:40:12.961Z,28.30
2022-12-19T13:45:47.383Z,20.67
2022-12-19T13:51:13.844Z,28.65
2022-12-19T13:56:37.411Z,27.20
2022-12-19T14:02:01.299Z,27.40
2022-12-19T14:07:47.780Z,25.80
2022-12-19T14:13:56.535Z,28.45
2022-12-19T14:19:01.734Z,27.17
2022-12-19T14:24:33.016Z,26.25
2022-12-19T14:30:27.974Z,27.67
2022-12-19T14:36:08.488Z,28.12
2022-12-19T14:41:08.377Z,30.08
2022-12-19T14:52:35.818Z,28.57
2022-12-19T14:54:40.198Z,28.83
2022-12-19T14:58:50.840Z,29.23
2022-12-19T15:02:54.768Z,30.00
2022-12-19T15:08:19.638Z,28.10
2022-12-19T15:14:55.121Z,28.40
2022-12-19T15:19:14.594Z,28.87
2022-12-19T15:24:37.212Z,29.00
2022-12-19T15:29:59.876Z,27.52
2022-12-19T15:35:25.997Z,29.98
2022-12-19T15:40:48.531Z,27.58
2022-12-19T15:46:15.841Z,27.77
2022-12-19T15:51:38.595Z,29.80
2022-12-19T15:57:03.970Z,27.77
2022-12-19T16:03:21.102Z,30.47
2022-12-19T16:08:00.199Z,29.92
2022-12-19T16:13:28.001Z,30.90
2022-12-19T16:18:50.283Z,31.03
2022-12-19T16:24:12.698Z,30.70
2022-12-19T16:29:41.972Z,30.30
2022-12-19T16:35:05.710Z,30.80
2022-12-19T16:40:31.963Z,32.70
2022-12-19T16:46:00.761Z,32.63
2022-12-19T16:51:36.023Z,31.50
2022-12-19T16:57:03.478Z,32.20
2022-12-19T17:02:49.540Z,31.60
2022-12-19T17:08:18.100Z,31.63
2022-12-19T17:13:40.715Z,33.43
2022-12-19T17:19:05.254Z,34.03
2022-12-19T17:24:29.706Z,33.37
2022-12-19T17:29:51.998Z,33.53
2022-12-19T17:35:16.173Z,34.27
2022-12-19T17:40:44.337Z,31.57
2022-12-19T17:46:06.892Z,34.08
2022-12-19T17:51:31.518Z,33.48
2022-12-19T17:56:53.874Z,33.98
2022-12-19T18:02:18.444Z,32.88
2022-12-19T18:07:41.249Z,32.78
2022-12-19T18:13:05.954Z,32.98
2022-12-19T18:18:38.187Z,31.10
2022-12-19T18:24:01.630Z,33.25
2022-12-19T18:29:24.758Z,34.58
2022-12-19T18:34:49.067Z,32.10
2022-12-19T18:40:20.072Z,33.88
2022-12-19T18:45:41.602Z,33.38
2022-12-19T18:51:04.794Z,31.97
2022-12-19T18:56:27.539Z,35.05
2022-12-19T19:01:52.659Z,32.95
2022-12-19T19:07:16.568Z,34.05
2022-12-19T19:12:39.058Z,32.70
2022-12-19T19:18:07.147Z,32.67
2022-12-19T19:23:31.408Z,32.48
2022-12-19T19:28:54.316Z,32.83
2022-12-19T19:34:29.867Z,32.10
2022-12-19T19:39:53.181Z,31.00
2022-12-19T19:45:16.048Z,32.20
2022-12-19T19:50:38.391Z,31.73
2022-12-19T19:56:10.137Z,29.10
2022-12-19T20:01:33.297Z,30.23
2022-12-19T20:06:57.767Z,30.85
2022-12-19T20:12:20.453Z,30.15
2022-12-19T20:17:44.003Z,29.72
2022-12-19T20:23:06.327Z,27.93
2022-12-19T20:28:28.900Z,31.23
2022-12-19T20:33:52.803Z,28.55
2022-12-19T20:39:15.944Z,29.80
2022-12-19T20:44:39.393Z,27.62
2022-12-19T20:50:02.212Z,28.60
2022-12-19T20:55:25.771Z,26.73
2022-12-19T21:00:48.968Z,29.85
2022-12-19T21:06:13.668Z,30.47
2022-12-19T21:11:37.646Z,29.85
2022-12-19T21:16:59.983Z,28.27
2022-12-19T21:22:22.213Z,29.12
2022-12-19T21:27:45.037Z,30.62
2022-12-19T21:33:09.162Z,30.80
2022-12-19T21:38:32.042Z,32.53
2022-12-19T21:43:55.328Z,32.60
2022-12-19T21:49:19.106Z,30.90
2022-12-19T21:54:41.310Z,33.20
2022-12-19T22:00:04.116Z,32.50
2022-12-19T22:05:26.599Z,32.98
2022-12-19T22:10:50.991Z,31.42
2022-12-19T22:16:13.948Z,33.13
2022-12-19T22:21:37.364Z,33.35
2022-12-19T22:26:59.817Z,30.65
2022-12-19T22:32:22.567Z,32.03
2022-12-19T22:37:44.975Z,29.03
2022-12-19T22:43:07.426Z,28.92
2022-12-19T22:48:29.704Z,27.30
2022-12-19T22:53:53.156Z,26.80
2022-12-19T22:59:19.097Z,26.17
2022-12-19T23:04:42.118Z,24.73
2022-12-19T23:10:04.472Z,26.57
2022-12-19T23:15:26.930Z,28.38
2022-12-19T23:20:49.157Z,26.60
2022-12-19T23:26:16.043Z,27.93
2022-12-19T23:31:37.076Z,26.30
2022-12-19T23:37:10.631Z,26.40
2022-12-19T23:42:24.554Z,26.93
2022-12-19T23:47:48.105Z,24.73
2022-12-19T23:53:10.380Z,26.20
2022-12-19T23:58:33.341Z,24.37
